createdAt,value
2023-04-21T00:01:36.280Z,27.6
2023-04-21T00:07:30.812Z,27.6
2023-04-21T00:13:22.393Z,27.6
2023-04-21T00:19:13.550Z,27.6
2023-04-21T00:25:05.131Z,27.5
2023-04-21T00:30:56.518Z,27.5
2023-04-21T00:36:32.722Z,27.4
2023-04-21T00:42:25.066Z,27.4
2023-04-21T00:48:01.612Z,27.4
2023-04-21T00:53:37.646Z,27.4
2023-04-21T00:59:14.619Z,27.4
2023-04-21T01:04:53.309Z,27.4
2023-04-21T01:10:44.756Z,27.9
2023-04-21T01:16:21.133Z,28.4
2023-04-21T01:22:12.564Z,29
2023-04-21T01:28:03.992Z,29.5
2023-04-21T01:33:55.903Z,29.9
2023-04-21T01:39:46.907Z,30.4
2023-04-21T01:44:52.501Z,30.8
2023-04-21T01:50:29.412Z,31.2
2023-04-21T01:56:21.004Z,31.7
2023-04-21T02:01:41.715Z,32.2
2023-04-21T02:07:35.140Z,32.6
2023-04-21T02:13:26.522Z,33.1
2023-04-21T02:19:35.541Z,33.7
2023-04-21T02:25:27.142Z,34.3
2023-04-21T02:31:03.019Z,34.8
2023-04-21T02:37:01.395Z,35.2
2023-04-21T02:42:53.105Z,35.6
2023-04-21T02:48:44.761Z,35.8
2023-04-21T02:54:37.051Z,35.9
2023-04-21T03:00:28.928Z,36.1
2023-04-21T03:06:21.725Z,36.1
2023-04-21T03:12:13.153Z,36.2
2023-04-21T03:18:06.210Z,36.3
2023-04-21T03:23:57.859Z,36.3
2023-04-21T03:29:49.856Z,36.4
2023-04-21T03:35:27.277Z,36.4
2023-04-21T03:41:30.525Z,36.4
2023-04-21T03:47:22.691Z,36.4
2023-04-21T03:53:16.765Z,36.4
2023-04-21T03:59:07.807Z,36.4
2023-04-21T04:05:03.070Z,36.4
2023-04-21T04:10:54.713Z,36.3
2023-04-21T04:16:15.551Z,36.3
2023-04-21T04:22:07.262Z,36.3
2023-04-21T04:27:58.817Z,36.3
2023-04-21T04:33:34.970Z,36.3
2023-04-21T04:39:29.480Z,36.2
2023-04-21T04:45:23.227Z,36.1
2023-04-21T04:51:17.488Z,36.1
2023-04-21T04:57:08.540Z,36.1
2023-04-21T05:03:00.149Z,36.1
2023-04-21T05:08:37.998Z,36.1
2023-04-21T05:14:29.664Z,36
2023-04-21T05:20:24.562Z,35.9
2023-04-21T05:26:19.037Z,35.9
2023-04-21T05:32:10.761Z,35.9
2023-04-21T05:38:05.988Z,35.8
2023-04-21T05:43:58.205Z,35.8
2023-04-21T05:49:36.049Z,35.7
2023-04-21T05:54:41.534Z,35.7
2023-04-21T06:00:32.844Z,35.6
2023-04-21T06:06:12.958Z,35.6
2023-04-21T06:11:49.432Z,35.6
2023-04-21T06:17:40.909Z,35.5
2023-04-21T06:23:16.785Z,44.7
2023-04-21T06:28:53.591Z,50.5
2023-04-21T06:34:33.484Z,47.8
2023-04-21T06:40:25.026Z,45.7
2023-04-21T06:46:17.300Z,44.2
2023-04-21T06:51:53.425Z,52.3
2023-04-21T06:57:28.838Z,52.6
2023-04-21T07:03:24.969Z,53.2
2023-04-21T07:09:17.785Z,53.8
2023-04-21T07:15:08.459Z,54.3
2023-04-21T07:21:01.084Z,55.1
2023-04-21T07:26:53.087Z,55.4
2023-04-21T07:32:28.353Z,56.2
2023-04-21T07:38:20.348Z,56.8
2023-04-21T07:44:11.861Z,56.6
2023-04-21T07:50:02.437Z,57.4
2023-04-21T07:55:54.670Z,57.1
2023-04-21T08:01:30.586Z,57
2023-04-21T08:07:30.486Z,56.1
2023-04-21T08:13:23.304Z,55
2023-04-21T08:18:59.930Z,54.3
2023-04-21T08:24:39.954Z,54
2023-04-21T08:30:16.714Z,55.1
2023-04-21T08:36:45.975Z,55.1
2023-04-21T08:42:39.544Z,54.4
2023-04-21T08:48:35.090Z,54.8
2023-04-21T08:54:30.047Z,55.4
2023-04-21T09:00:36.854Z,56.8
2023-04-21T09:11:58.797Z,58.5
2023-04-21T09:17:50.776Z,59.2
2023-04-21T09:23:27.651Z,59.4
2023-04-21T09:29:21.573Z,59.8
2023-04-21T09:35:33.996Z,58.4
2023-04-21T09:42:08.168Z,58.3
2023-04-21T09:48:25.545Z,49.4
2023-04-21T09:55:17.295Z,43.7
2023-04-21T10:00:53.386Z,42.4
2023-04-21T10:06:49.411Z,42.3
2023-04-21T10:12:42.609Z,44.4
2023-04-21T10:18:34.903Z,44.9
2023-04-21T10:24:27.103Z,44.9
2023-04-21T10:30:30.044Z,44.9
2023-04-21T10:36:23.094Z,46.3
2023-04-21T10:42:19.487Z,48.7
2023-04-21T10:48:11.108Z,49.6
2023-04-21T10:54:02.914Z,50.6
2023-04-21T10:59:54.651Z,50.1
2023-04-21T11:05:51.877Z,50.5
2023-04-21T11:11:45.020Z,50.4
2023-04-21T11:17:36.605Z,51.1
2023-04-21T11:23:27.723Z,52.8
2023-04-21T11:29:19.304Z,54.4
2023-04-21T11:34:55.680Z,55.7
2023-04-21T11:40:47.286Z,56.9
2023-04-21T11:46:40.203Z,58.1
2023-04-21T11:58:08.782Z,59.6
2023-04-21T12:04:01.478Z,60.1
2023-04-21T12:09:39.465Z,60.8
2023-04-21T12:15:32.778Z,61.3
2023-04-21T12:21:25.347Z,61.5
2023-04-21T12:27:16.882Z,61.8
2023-04-21T12:33:11.901Z,61.8
2023-04-21T12:39:05.248Z,61.1
2023-04-21T12:44:56.519Z,60.5
2023-04-21T12:50:50.489Z,59.8
2023-04-21T12:56:37.069Z,59.2
2023-04-21T13:02:31.698Z,58.5
2023-04-21T13:08:24.978Z,57.8
2023-04-21T13:14:02.134Z,57.3
2023-04-21T13:19:53.682Z,56.7
2023-04-21T13:25:47.269Z,56.1
2023-04-21T13:31:38.925Z,55.5
2023-04-21T13:37:35.040Z,54.8
2023-04-21T13:43:14.575Z,54.1
2023-04-21T13:49:06.928Z,53.5
2023-04-21T13:55:00.821Z,51.1
2023-04-21T14:00:37.037Z,50.3
2023-04-21T14:06:18.008Z,46.6
2023-04-21T14:11:56.976Z,48.1
2023-04-21T14:18:35.250Z,45.2
2023-04-21T14:24:26.831Z,45.3
2023-04-21T14:30:18.815Z,46.6
2023-04-21T14:35:56.088Z,44.2
2023-04-21T14:41:35.079Z,48.3
2023-04-21T14:47:26.205Z,45.8
2023-04-21T14:53:02.115Z,42.8
2023-04-21T14:59:10.010Z,40.7
2023-04-21T15:04:50.476Z,39.1
2023-04-21T15:10:30.864Z,37.8
2023-04-21T15:16:07.482Z,36.7
2023-04-21T15:21:54.375Z,35.8
2023-04-21T15:27:45.637Z,34.9
2023-04-21T15:33:22.084Z,34.3
2023-04-21T15:38:58.168Z,33.7
2023-04-21T15:44:47.605Z,33.2
2023-04-21T15:50:25.206Z,32.8
2023-04-21T15:56:17.422Z,32.4
2023-04-21T16:02:11.252Z,32.1
2023-04-21T16:07:51.411Z,31.8
2023-04-21T16:13:43.416Z,31.6
2023-04-21T16:20:11.715Z,31.3
2023-04-21T16:26:04.850Z,31.1
2023-04-21T16:31:57.332Z,30.9
2023-04-21T16:37:52.138Z,30.7
2023-04-21T16:43:44.346Z,30.6
2023-04-21T16:49:37.740Z,30.4
2023-04-21T16:55:29.236Z,30.3
2023-04-21T17:01:20.292Z,30.1
2023-04-21T17:07:14.553Z,30
2023-04-21T17:13:05.665Z,29.9
2023-04-21T17:18:59.619Z,29.8
2023-04-21T17:25:08.385Z,29.7
2023-04-21T17:31:13.566Z,29.6
2023-04-21T17:37:34.322Z,29.6
2023-04-21T17:43:26.141Z,29.2
2023-04-21T17:49:18.018Z,28.8
2023-04-21T17:54:54.662Z,28.5
2023-04-21T18:00:46.325Z,28.3
2023-04-21T18:06:25.028Z,28.1
2023-04-21T18:12:01.628Z,27.9
2023-04-21T18:17:38.916Z,27.9
2023-04-21T18:23:15.356Z,27.9
2023-04-21T18:34:27.223Z,27.8
2023-04-21T18:40:02.250Z,27.7
2023-04-21T18:45:08.623Z,27.7
2023-04-21T18:50:45.758Z,27.6
2023-04-21T18:56:21.780Z,27.6
2023-04-21T19:01:58.285Z,27.6
2023-04-21T19:07:36.593Z,27.6
2023-04-21T19:13:43.478Z,27.6
2023-04-21T19:19:48.979Z,28
2023-04-21T19:25:40.408Z,29.7
2023-04-21T19:31:31.751Z,31.5
2023-04-21T19:37:24.916Z,32.9
2023-04-21T19:43:15.905Z,34.1
2023-04-21T19:49:08.560Z,35.1
2023-04-21T19:55:15.751Z,35.8
2023-04-21T20:01:24.348Z,36.4
2023-04-21T20:07:18.800Z,36.9
2023-04-21T20:13:09.903Z,37.3
2023-04-21T20:19:01.801Z,37.6
2023-04-21T20:24:53.490Z,37.8
2023-04-21T20:30:31.931Z,38
2023-04-21T20:36:23.694Z,38.1
2023-04-21T20:42:11.719Z,38.2
2023-04-21T20:47:49.820Z,38.3
2023-04-21T20:53:41.274Z,38.3
2023-04-21T20:59:32.383Z,38.4
2023-04-21T21:05:28.509Z,38.4
2023-04-21T21:11:23.508Z,38.4
2023-04-21T21:17:14.622Z,38.4
2023-04-21T21:22:50.877Z,38.4
2023-04-21T21:28:41.883Z,38.4
2023-04-21T21:34:33.851Z,38.4
2023-04-21T21:40:25.780Z,38.3
2023-04-21T21:46:17.624Z,38.3
2023-04-21T21:52:13.917Z,38.3
2023-04-21T21:57:50.041Z,38.3
2023-04-21T22:03:46.500Z,38.2
2023-04-21T22:09:40.786Z,38.1
2023-04-21T22:15:44.437Z,38.1
2023-04-21T22:21:35.870Z,38.1
2023-04-21T22:27:27.010Z,38
2023-04-21T22:33:03.926Z,37.9
2023-04-21T22:38:54.938Z,37.9
2023-04-21T22:44:45.941Z,37.8
2023-04-21T22:50:38.291Z,37.8
2023-04-21T22:56:30.214Z,37.8
2023-04-21T23:02:22.859Z,37.7
2023-04-21T23:08:00.504Z,37.6
2023-04-21T23:13:52.622Z,37.6
2023-04-21T23:19:44.864Z,37.5
2023-04-21T23:25:36.280Z,37.4
2023-04-21T23:31:28.137Z,37.4
2023-04-21T23:37:20.113Z,37.4
2023-04-21T23:43:11.915Z,37.3
2023-04-21T23:49:04.347Z,37.2
2023-04-21T23:54:41.691Z,37.1
